EFTP/TMP METAR and TAF weather

Enter ICAO airport designator
Station Type Date Time Source
EFTP METAR 2021/05/10 01:50 UTC NOAA

EFTP 100150Z AUTO 14010KT 4900 -DZ OVC006 06/05 Q1010


Station Type Date Time Source
EFTP Decoded METAR 2021/05/10 01:50 UTC NOAA

Tampere / Pirkkala, Finland (EFTP) 61-25N 023-35E 112M
May 09, 2021 - 09:50 PM EDT / 2021.05.10 0150 UTC
Wind: from the SE (140 degrees) at 12 MPH (10 KT):0
Visibility: 3 mile(s):0
Sky conditions: overcast
Weather: light drizzle
Temperature: 42 F (6 C)
Dew Point: 41 F (5 C)
Relative Humidity: 93%
Pressure (altimeter): 29.83 in. Hg (1010 hPa)
ob: EFTP 100150Z AUTO 14010KT 4900 -DZ OVC006 06/05 Q1010
cycle: 2

Station Type Date Time Source
EFTP TAF 2021/05/10 00:03 UTC NOAA

TAF
AMD TAF
AMD EFTP 100100Z 1000/1024 15009KT 8000 -RA OVC005
TEMPO 1001/1009 3000 DZRA BKN003 PROB30 1002/1009 2000 -RADZ BR
BECMG 1009/1011 BKN010
BECMG 1011/1013 SCT040
TEMPO 1013/1015 SCT050CB

Example: see airport list